Gambrills, MD (21054)

9:52 PM EDT on September 01, 2014 (GMT -0400)
Canter Farms I | Change Station
CLOSE
Current Station
Personal Weather Station
Location: Gambrills, MD
Elevation: 148 ft
Nearby Weather Stations

Elev 148 ft 39.04 °N, 76.67 °W | Updated 27 seconds ago

Clear
Clear
76.3 °F
Feels Like 77 °F
N
0.0
Wind Variable Wind from SSE
Gusts 0.0 mph

Today
High -- | Low -- °F
--% Chance of Precip.
Yesterday
High -- | Low -- °F
Precip. -- in
6:35 AM 7:37 PM
Waxing Crescent, 46% visible
Pressure 29.99 in
Visibility 7.0 miles
Clouds Clear
Heat Index 77 °F
Dew Point 71 °F
Humidity 83%
Rainfall 0.00 in
Snow Depth Not available.
UV 0 out of 12
Pollen 6.70 out of 12
Air Quality Not available.
Flu Activity Not available.
METAR KFME 020127Z AUTO 00000KT 7SM CLR 23/22 A2999 RMK AO1

More Conditions Fewer Conditions

Pressure 29.99 in
Visibility 7.0 miles
Clouds Clear
Heat Index 77 °F
Dew Point 71 °F
Humidity 83%
Rainfall 0.00 in
Snow Depth Not available.
UV 0 out of 12
Pollen 6.70 out of 12
Air Quality Not available.
Flu Activity Not available.
METAR KFME 020127Z AUTO 00000KT 7SM CLR 23/22 A2999 RMK AO1

More Conditions Fewer Conditions

10-Day Weather Forecast

Almanac

Astronomy

Sep. 01, 2014 Rise Set
Actual Time 6:35 AM EDT 7:37 PM EDT
Civil Twilight 6:08 AM EDT 8:04 PM EDT
Nautical Twilight 5:35 AM EDT 8:36 PM EDT
Astronomical Twilight 5:01 AM EDT 9:10 PM EDT
Moon 1:15 PM EDT (9/1) 11:39 PM EDT (9/1)
Length of Visible Light 13h 56m
Length of Day
13h 01m
Tomorrow will be 2m 26s shorter.
Waxing Crescent, 46% of the Moon is Illuminated
Today
Waxing Crescent
Sep 2
First Quarter
Sep 8
Full
Sep 15
Last Quarter
Sep 24
New

Today's Extremes

State Highs State Lows

Community

WunderPhotos

Upload Photos

1,749,476 photos uploaded!

Nearby

Snow Depth

Station Depth Elevation
No new snow has been reported.

Earthquake Activity

City Distance Mag. Time & Date
No recent earthquake activity has been reported nearby.
Minimum magnitude displayed is 2.5.

Coastal Water Temperatures

Place Temperature
Cambridge, MD 80.1 °F
Tolchester Beach, MD 81.0 °F
Baltimore, MD 82.0 °F

Nearby Weather Stations